Dalad Qi, China
Current Conditions -  °F | °C
As of 2:00 PM on Saturday 20 Dec 2014 (Local Time) from ZBHH Reporting Station
Few Clouds Few Clouds  
Wind Chill:   Ceiling: Unl
Heat Index: 18°   Visibility: 6mi
Dew Point:   Wind: 7mph
Humidity: 45%   Direction: 220°SW
Pressure: 30.27"   Gusts: NA
Location:  40.39°N, 110.03°E
Report Text: ZBHH 200600Z 22003MPS 190V270 9999 FEW040 M08/M18 Q1025 NOSIG
Loading
Personal Weather Stations






























Interactive Weather Map New forecast layout! Learn more

10-Day Weather Forecast

Advertisements
Track Severe Weather on mobile